sensor_id;sensor_type;location;lat;lon;timestamp;pressure;altitude;pressure_sealevel;temperature;humidity
39267;BME280;24967;51.154;13.812;2023-02-12T00:02:13;101206.91;;;6.85;100.00
39267;BME280;24967;51.154;13.812;2023-02-12T00:04:41;101214.75;;;7.02;100.00
39267;BME280;24967;51.154;13.812;2023-02-12T00:07:07;101207.75;;;6.85;100.00
39267;BME280;24967;51.154;13.812;2023-02-12T00:09:33;101219.53;;;6.96;100.00
39267;BME280;24967;51.154;13.812;2023-02-12T00:12:00;101215.41;;;7.22;99.42
39267;BME280;24967;51.154;13.812;2023-02-12T00:14:26;101213.47;;;7.09;99.06
39267;BME280;24967;51.154;13.812;2023-02-12T00:19:24;101233.16;;;7.04;99.20
39267;BME280;24967;51.154;13.812;2023-02-12T00:21:51;101225.81;;;7.25;97.39
39267;BME280;24967;51.154;13.812;2023-02-12T00:24:18;101233.91;;;7.22;97.51
39267;BME280;24967;51.154;13.812;2023-02-12T00:26:44;101240.31;;;7.33;97.23
39267;BME280;24967;51.154;13.812;2023-02-12T00:29:12;101232.28;;;7.19;98.24
39267;BME280;24967;51.154;13.812;2023-02-12T00:31:38;101231.81;;;6.97;99.56
39267;BME280;24967;51.154;13.812;2023-02-12T00:34:05;101225.91;;;7.23;98.58
39267;BME280;24967;51.154;13.812;2023-02-12T00:36:31;101228.56;;;7.07;98.58
39267;BME280;24967;51.154;13.812;2023-02-12T00:38:59;101224.03;;;7.09;99.19
39267;BME280;24967;51.154;13.812;2023-02-12T00:41:26;101218.69;;;7.11;98.10
39267;BME280;24967;51.154;13.812;2023-02-12T00:43:52;101231.47;;;7.03;98.28
39267;BME280;24967;51.154;13.812;2023-02-12T00:46:19;101230.47;;;7.05;99.32
39267;BME280;24967;51.154;13.812;2023-02-12T00:48:45;101222.84;;;7.15;98.04
39267;BME280;24967;51.154;13.812;2023-02-12T00:51:11;101220.97;;;7.01;98.93
39267;BME280;24967;51.154;13.812;2023-02-12T00:53:38;101230.59;;;6.86;100.00
39267;BME280;24967;51.154;13.812;2023-02-12T00:56:06;101232.56;;;6.83;100.00
39267;BME280;24967;51.154;13.812;2023-02-12T00:58:32;101236.59;;;6.90;100.00
39267;BME280;24967;51.154;13.812;2023-02-12T01:00:58;101240.78;;;6.94;99.94
39267;BME280;24967;51.154;13.812;2023-02-12T01:03:25;101235.50;;;6.78;100.00
39267;BME280;24967;51.154;13.812;2023-02-12T01:05:51;101237.91;;;6.50;100.00
39267;BME280;24967;51.154;13.812;2023-02-12T01:08:18;101233.94;;;6.58;100.00
39267;BME280;24967;51.154;13.812;2023-02-12T01:10:44;101236.56;;;6.58;100.00
39267;BME280;24967;51.154;13.812;2023-02-12T01:13:12;101246.69;;;6.50;100.00
39267;BME280;24967;51.154;13.812;2023-02-12T01:15:38;101244.84;;;6.68;100.00
39267;BME280;24967;51.154;13.812;2023-02-12T01:18:05;101249.44;;;6.64;100.00
39267;BME280;24967;51.154;13.812;2023-02-12T01:20:31;101246.69;;;6.50;100.00
39267;BME280;24967;51.154;13.812;2023-02-12T01:22:57;101249.63;;;6.61;100.00
39267;BME280;24967;51.154;13.812;2023-02-12T01:25:25;101248.44;;;6.83;100.00
39267;BME280;24967;51.154;13.812;2023-02-12T01:27:52;101251.00;;;6.84;100.00
39267;BME280;24967;51.154;13.812;2023-02-12T01:30:20;101252.97;;;6.97;100.00
39267;BME280;24967;51.154;13.812;2023-02-12T01:32:48;101258.44;;;6.78;100.00
39267;BME280;24967;51.154;13.812;2023-02-12T01:35:14;101252.53;;;6.73;100.00
39267;BME280;24967;51.154;13.812;2023-02-12T01:37:40;101257.72;;;6.74;100.00
39267;BME280;24967;51.154;13.812;2023-02-12T01:40:08;101246.75;;;6.82;100.00
39267;BME280;24967;51.154;13.812;2023-02-12T01:42:35;101246.97;;;6.77;100.00
39267;BME280;24967;51.154;13.812;2023-02-12T01:47:47;101261.06;;;6.94;100.00
39267;BME280;24967;51.154;13.812;2023-02-12T01:50:14;101263.22;;;6.87;100.00
39267;BME280;24967;51.154;13.812;2023-02-12T01:52:43;101262.44;;;6.85;100.00
39267;BME280;24967;51.154;13.812;2023-02-12T01:55:11;101254.84;;;6.95;100.00
39267;BME280;24967;51.154;13.812;2023-02-12T01:57:39;101260.03;;;6.80;100.00
39267;BME280;24967;51.154;13.812;2023-02-12T02:00:07;101260.56;;;6.87;100.00
39267;BME280;24967;51.154;13.812;2023-02-12T02:02:34;101268.56;;;6.85;100.00
39267;BME280;24967;51.154;13.812;2023-02-12T02:05:03;101265.69;;;6.90;100.00
39267;BME280;24967;51.154;13.812;2023-02-12T02:07:30;101260.75;;;7.00;100.00
39267;BME280;24967;51.154;13.812;2023-02-12T02:09:57;101271.81;;;6.91;100.00
39267;BME280;24967;51.154;13.812;2023-02-12T02:12:23;101266.59;;;7.05;100.00
39267;BME280;24967;51.154;13.812;2023-02-12T02:15:08;101262.09;;;7.07;100.00
39267;BME280;24967;51.154;13.812;2023-02-12T02:17:38;101266.94;;;6.83;100.00
39267;BME280;24967;51.154;13.812;2023-02-12T02:23:03;101261.66;;;6.83;100.00
39267;BME280;24967;51.154;13.812;2023-02-12T02:28:27;101260.56;;;7.03;100.00
39267;BME280;24967;51.154;13.812;2023-02-12T02:30:59;101268.41;;;6.88;100.00
39267;BME280;24967;51.154;13.812;2023-02-12T02:33:35;101263.72;;;7.09;100.00
39267;BME280;24967;51.154;13.812;2023-02-12T02:36:09;101272.72;;;6.74;100.00
39267;BME280;24967;51.154;13.812;2023-02-12T02:38:39;101264.28;;;6.99;100.00
39267;BME280;24967;51.154;13.812;2023-02-12T02:41:07;101264.38;;;7.13;100.00
39267;BME280;24967;51.154;13.812;2023-02-12T02:43:37;101267.88;;;6.82;100.00
39267;BME280;24967;51.154;13.812;2023-02-12T02:46:08;101275.38;;;6.74;100.00
39267;BME280;24967;51.154;13.812;2023-02-12T02:48:35;101266.78;;;6.86;100.00
39267;BME280;24967;51.154;13.812;2023-02-12T02:51:05;101274.09;;;7.28;100.00
39267;BME280;24967;51.154;13.812;2023-02-12T02:53:34;101269.59;;;7.30;99.52
39267;BME280;24967;51.154;13.812;2023-02-12T02:56:02;101274.75;;;7.48;99.41
39267;BME280;24967;51.154;13.812;2023-02-12T02:58:34;101270.56;;;7.60;98.06
39267;BME280;24967;51.154;13.812;2023-02-12T03:01:01;101275.84;;;7.60;97.07
39267;BME280;24967;51.154;13.812;2023-02-12T03:03:31;101284.66;;;7.60;95.92
39267;BME280;24967;51.154;13.812;2023-02-12T03:05:58;101284.72;;;7.58;95.38
39267;BME280;24967;51.154;13.812;2023-02-12T03:08:28;101283.63;;;7.63;95.57
39267;BME280;24967;51.154;13.812;2023-02-12T03:10:58;101288.38;;;7.72;95.43
39267;BME280;24967;51.154;13.812;2023-02-12T03:13:27;101288.44;;;7.70;95.46
39267;BME280;24967;51.154;13.812;2023-02-12T03:15:56;101292.59;;;7.74;94.36
39267;BME280;24967;51.154;13.812;2023-02-12T03:18:25;101294.34;;;7.75;94.58
39267;BME280;24967;51.154;13.812;2023-02-12T03:20:54;101288.31;;;7.57;94.05
39267;BME280;24967;51.154;13.812;2023-02-12T03:23:23;101293.25;;;7.64;94.42
39267;BME280;24967;51.154;13.812;2023-02-12T03:25:52;101298.78;;;7.59;94.57
39267;BME280;24967;51.154;13.812;2023-02-12T03:28:21;101299.22;;;7.67;94.80
39267;BME280;24967;51.154;13.812;2023-02-12T03:30:52;101314.78;;;7.57;94.25
39267;BME280;24967;51.154;13.812;2023-02-12T03:33:25;101326.03;;;7.61;94.46
39267;BME280;24967;51.154;13.812;2023-02-12T03:35:56;101327.19;;;7.87;93.27
39267;BME280;24967;51.154;13.812;2023-02-12T03:38:29;101326.94;;;7.76;92.54
39267;BME280;24967;51.154;13.812;2023-02-12T03:40:57;101333.06;;;7.92;92.43
39267;BME280;24967;51.154;13.812;2023-02-12T03:43:28;101331.53;;;7.88;91.59
39267;BME280;24967;51.154;13.812;2023-02-12T03:45:59;101335.84;;;7.75;91.35
39267;BME280;24967;51.154;13.812;2023-02-12T03:48:27;101338.25;;;7.64;92.66
39267;BME280;24967;51.154;13.812;2023-02-12T03:50:57;101346.34;;;7.76;92.61
39267;BME280;24967;51.154;13.812;2023-02-12T03:53:24;101343.81;;;7.89;91.05
39267;BME280;24967;51.154;13.812;2023-02-12T03:55:52;101353.69;;;7.71;92.07
39267;BME280;24967;51.154;13.812;2023-02-12T03:58:22;101357.38;;;7.69;92.52
39267;BME280;24967;51.154;13.812;2023-02-12T04:00:50;101357.72;;;7.63;91.93
39267;BME280;24967;51.154;13.812;2023-02-12T04:03:17;101350.38;;;7.52;93.55
39267;BME280;24967;51.154;13.812;2023-02-12T04:05:43;101356.06;;;7.76;91.42
39267;BME280;24967;51.154;13.812;2023-02-12T04:08:11;101359.53;;;7.92;90.53
39267;BME280;24967;51.154;13.812;2023-02-12T04:10:41;101358.53;;;7.79;91.10
39267;BME280;24967;51.154;13.812;2023-02-12T04:13:11;101364.63;;;7.49;92.60
39267;BME280;24967;51.154;13.812;2023-02-12T04:15:46;101380.50;;;7.65;92.35
39267;BME280;24967;51.154;13.812;2023-02-12T04:18:17;101368.88;;;7.68;92.37
39267;BME280;24967;51.154;13.812;2023-02-12T04:20:47;101376.69;;;7.23;95.17
39267;BME280;24967;51.154;13.812;2023-02-12T04:23:23;101380.94;;;7.57;93.28
39267;BME280;24967;51.154;13.812;2023-02-12T04:25:56;101377.69;;;7.52;93.80
39267;BME280;24967;51.154;13.812;2023-02-12T04:28:32;101375.81;;;7.70;92.64
39267;BME280;24967;51.154;13.812;2023-02-12T04:31:02;101382.56;;;7.76;92.64
39267;BME280;24967;51.154;13.812;2023-02-12T04:33:32;101382.56;;;7.76;91.78
39267;BME280;24967;51.154;13.812;2023-02-12T04:36:00;101379.13;;;7.90;91.47
39267;BME280;24967;51.154;13.812;2023-02-12T04:38:30;101376.91;;;7.82;90.64
39267;BME280;24967;51.154;13.812;2023-02-12T04:41:00;101374.84;;;7.71;91.04
39267;BME280;24967;51.154;13.812;2023-02-12T04:43:28;101380.22;;;7.86;91.18
39267;BME280;24967;51.154;13.812;2023-02-12T04:45:54;101375.34;;;7.94;90.12
39267;BME280;24967;51.154;13.812;2023-02-12T04:48:21;101381.19;;;7.85;90.54
39267;BME280;24967;51.154;13.812;2023-02-12T04:50:47;101380.72;;;7.92;90.34
39267;BME280;24967;51.154;13.812;2023-02-12T04:53:14;101378.13;;;8.07;89.61
39267;BME280;24967;51.154;13.812;2023-02-12T04:55:41;101377.19;;;8.08;88.25
39267;BME280;24967;51.154;13.812;2023-02-12T04:58:08;101383.72;;;7.86;89.35
39267;BME280;24967;51.154;13.812;2023-02-12T05:00:34;101380.72;;;7.92;88.75
39267;BME280;24967;51.154;13.812;2023-02-12T05:03:00;101380.16;;;7.87;89.41
39267;BME280;24967;51.154;13.812;2023-02-12T05:05:27;101378.25;;;7.89;89.43
39267;BME280;24967;51.154;13.812;2023-02-12T05:07:53;101391.31;;;7.92;89.47
39267;BME280;24967;51.154;13.812;2023-02-12T05:10:19;101386.13;;;7.91;89.21
39267;BME280;24967;51.154;13.812;2023-02-12T05:12:47;101385.47;;;7.55;90.48
39267;BME280;24967;51.154;13.812;2023-02-12T05:15:13;101383.50;;;7.59;91.65
39267;BME280;24967;51.154;13.812;2023-02-12T05:17:40;101389.38;;;7.64;91.82
39267;BME280;24967;51.154;13.812;2023-02-12T05:20:06;101389.16;;;7.69;91.18
39267;BME280;24967;51.154;13.812;2023-02-12T05:22:33;101386.16;;;7.75;90.79
39267;BME280;24967;51.154;13.812;2023-02-12T05:24:59;101393.91;;;7.78;89.96
39267;BME280;24967;51.154;13.812;2023-02-12T05:27:25;101399.78;;;7.83;90.33
39267;BME280;24967;51.154;13.812;2023-02-12T05:29:53;101400.06;;;7.78;90.30
39267;BME280;24967;51.154;13.812;2023-02-12T05:32:20;101402.97;;;7.74;90.21
39267;BME280;24967;51.154;13.812;2023-02-12T05:34:47;101407.69;;;7.69;91.11
39267;BME280;24967;51.154;13.812;2023-02-12T05:37:13;101412.88;;;7.70;91.12
39267;BME280;24967;51.154;13.812;2023-02-12T05:39:40;101410.50;;;7.66;90.98
39267;BME280;24967;51.154;13.812;2023-02-12T05:42:06;101414.22;;;7.77;91.05
39267;BME280;24967;51.154;13.812;2023-02-12T05:44:32;101409.44;;;7.84;90.32
39267;BME280;24967;51.154;13.812;2023-02-12T05:47:00;101407.84;;;7.82;90.73
39267;BME280;24967;51.154;13.812;2023-02-12T05:49:26;101404.69;;;7.75;89.91
39267;BME280;24967;51.154;13.812;2023-02-12T05:51:53;101401.75;;;7.79;90.31
39267;BME280;24967;51.154;13.812;2023-02-12T05:54:19;101400.53;;;8.01;89.34
39267;BME280;24967;51.154;13.812;2023-02-12T05:56:46;101404.91;;;7.86;89.47
39267;BME280;24967;51.154;13.812;2023-02-12T05:59:13;101398.44;;;7.76;89.19
39267;BME280;24967;51.154;13.812;2023-02-12T06:01:40;101406.97;;;7.81;89.95
39267;BME280;24967;51.154;13.812;2023-02-12T06:04:15;101405.25;;;7.96;89.76
39267;BME280;24967;51.154;13.812;2023-02-12T06:06:42;101409.13;;;8.04;88.48
39267;BME280;24967;51.154;13.812;2023-02-12T06:09:09;101420.16;;;8.13;88.31
39267;BME280;24967;51.154;13.812;2023-02-12T06:11:35;101423.97;;;7.93;88.90
39267;BME280;24967;51.154;13.812;2023-02-12T06:14:02;101414.22;;;7.93;89.32
39267;BME280;24967;51.154;13.812;2023-02-12T06:16:29;101424.78;;;8.09;87.98
39267;BME280;24967;51.154;13.812;2023-02-12T06:18:55;101419.25;;;7.82;89.25
39267;BME280;24967;51.154;13.812;2023-02-12T06:21:24;101430.84;;;7.95;88.72
39267;BME280;24967;51.154;13.812;2023-02-12T06:23:50;101433.75;;;8.07;88.79
39267;BME280;24967;51.154;13.812;2023-02-12T06:26:17;101433.69;;;8.08;87.48
39267;BME280;24967;51.154;13.812;2023-02-12T06:28:44;101442.72;;;8.04;88.50
39267;BME280;24967;51.154;13.812;2023-02-12T06:31:17;101439.84;;;7.93;88.93
39267;BME280;24967;51.154;13.812;2023-02-12T06:33:43;101440.53;;;7.80;89.29
39267;BME280;24967;51.154;13.812;2023-02-12T06:36:10;101448.88;;;8.04;89.13
39267;BME280;24967;51.154;13.812;2023-02-12T06:38:37;101451.34;;;8.08;88.70
39267;BME280;24967;51.154;13.812;2023-02-12T06:41:04;101447.63;;;7.96;88.43
39267;BME280;24967;51.154;13.812;2023-02-12T06:43:30;101460.41;;;8.03;88.85
39267;BME280;24967;51.154;13.812;2023-02-12T06:45:59;101478.59;;;8.10;88.42
39267;BME280;24967;51.154;13.812;2023-02-12T06:48:25;101470.31;;;8.16;88.46
39267;BME280;24967;51.154;13.812;2023-02-12T06:50:52;101476.09;;;8.22;87.34
39267;BME280;24967;51.154;13.812;2023-02-12T06:53:18;101473.63;;;8.19;87.76
39267;BME280;24967;51.154;13.812;2023-02-12T06:55:46;101476.56;;;8.15;87.03
39267;BME280;24967;51.154;13.812;2023-02-12T06:58:12;101483.41;;;8.03;88.33
39267;BME280;24967;51.154;13.812;2023-02-12T07:00:38;101486.66;;;8.08;88.36
39267;BME280;24967;51.154;13.812;2023-02-12T07:03:05;101490.22;;;8.07;88.26
39267;BME280;24967;51.154;13.812;2023-02-12T07:05:31;101501.78;;;8.06;88.73
39267;BME280;24967;51.154;13.812;2023-02-12T07:08:01;101498.28;;;7.90;89.71
39267;BME280;24967;51.154;13.812;2023-02-12T07:10:28;101492.19;;;8.03;88.56
39267;BME280;24967;51.154;13.812;2023-02-12T07:12:55;101500.66;;;7.94;89.36
39267;BME280;24967;51.154;13.812;2023-02-12T07:15:22;101502.38;;;8.11;88.66
39267;BME280;24967;51.154;13.812;2023-02-12T07:17:48;101508.44;;;7.97;88.99
39267;BME280;24967;51.154;13.812;2023-02-12T07:20:14;101502.53;;;7.92;89.87
39267;BME280;24967;51.154;13.812;2023-02-12T07:22:41;101505.19;;;7.92;90.18
39267;BME280;24967;51.154;13.812;2023-02-12T07:25:07;101509.13;;;7.85;90.19
39267;BME280;24967;51.154;13.812;2023-02-12T07:27:35;101510.66;;;7.89;90.21
39267;BME280;24967;51.154;13.812;2023-02-12T07:30:03;101518.09;;;7.83;91.18
39267;BME280;24967;51.154;13.812;2023-02-12T07:32:30;101512.69;;;7.68;91.90
39267;BME280;24967;51.154;13.812;2023-02-12T07:34:56;101521.84;;;7.78;92.12
39267;BME280;24967;51.154;13.812;2023-02-12T07:37:23;101517.25;;;7.82;91.57
39267;BME280;24967;51.154;13.812;2023-02-12T07:39:50;101521.94;;;7.93;91.42
39267;BME280;24967;51.154;13.812;2023-02-12T07:42:16;101518.44;;;7.92;91.08
39267;BME280;24967;51.154;13.812;2023-02-12T07:44:43;101515.09;;;7.89;91.59
39267;BME280;24967;51.154;13.812;2023-02-12T07:47:10;101514.66;;;7.65;93.12
39267;BME280;24967;51.154;13.812;2023-02-12T07:49:37;101520.50;;;7.87;91.92
39267;BME280;24967;51.154;13.812;2023-02-12T07:52:03;101520.22;;;7.92;91.62
39267;BME280;24967;51.154;13.812;2023-02-12T07:54:29;101525.78;;;8.03;90.94
39267;BME280;24967;51.154;13.812;2023-02-12T07:56:56;101530.56;;;7.96;91.00
39267;BME280;24967;51.154;13.812;2023-02-12T07:59:22;101530.47;;;7.98;91.43
39267;BME280;24967;51.154;13.812;2023-02-12T08:01:49;101527.75;;;7.99;91.25
39267;BME280;24967;51.154;13.812;2023-02-12T08:04:17;101536.44;;;8.01;91.57
39267;BME280;24967;51.154;13.812;2023-02-12T08:06:45;101542.19;;;8.10;91.29
39267;BME280;24967;51.154;13.812;2023-02-12T08:09:13;101544.06;;;8.08;91.38
39267;BME280;24967;51.154;13.812;2023-02-12T08:11:41;101545.44;;;8.15;91.17
39267;BME280;24967;51.154;13.812;2023-02-12T08:14:07;101554.75;;;8.22;89.83
39267;BME280;24967;51.154;13.812;2023-02-12T08:16:34;101548.44;;;8.09;90.88
39267;BME280;24967;51.154;13.812;2023-02-12T08:19:01;101548.91;;;8.31;90.66
39267;BME280;24967;51.154;13.812;2023-02-12T08:21:29;101549.81;;;8.47;89.00
39267;BME280;24967;51.154;13.812;2023-02-12T08:23:56;101555.25;;;8.29;89.99
39267;BME280;24967;51.154;13.812;2023-02-12T08:26:24;101553.72;;;8.40;89.38
39267;BME280;24967;51.154;13.812;2023-02-12T08:28:53;101550.47;;;8.51;88.91
39267;BME280;24967;51.154;13.812;2023-02-12T08:31:20;101547.81;;;8.51;89.42
39267;BME280;24967;51.154;13.812;2023-02-12T08:33:47;101556.59;;;8.67;88.87
39267;BME280;24967;51.154;13.812;2023-02-12T08:36:14;101557.47;;;8.52;88.87
39267;BME280;24967;51.154;13.812;2023-02-12T08:38:43;101558.06;;;8.57;88.41
39267;BME280;24967;51.154;13.812;2023-02-12T08:41:10;101558.25;;;8.54;88.98
39267;BME280;24967;51.154;13.812;2023-02-12T08:43:37;101554.72;;;8.38;88.79
39267;BME280;24967;51.154;13.812;2023-02-12T08:46:04;101560.59;;;8.44;89.12
39267;BME280;24967;51.154;13.812;2023-02-12T08:48:30;101556.94;;;8.61;88.16
39267;BME280;24967;51.154;13.812;2023-02-12T08:51:02;101566.28;;;8.53;88.78
39267;BME280;24967;51.154;13.812;2023-02-12T08:53:28;101567.75;;;8.26;89.95
39267;BME280;24967;51.154;13.812;2023-02-12T08:55:56;101569.88;;;8.36;90.66
39267;BME280;24967;51.154;13.812;2023-02-12T08:58:22;101575.25;;;8.50;89.30
39267;BME280;24967;51.154;13.812;2023-02-12T09:00:48;101576.09;;;8.35;89.58
39267;BME280;24967;51.154;13.812;2023-02-12T09:03:15;101579.88;;;8.46;90.00
39267;BME280;24967;51.154;13.812;2023-02-12T09:05:41;101584.00;;;8.20;91.03
39267;BME280;24967;51.154;13.812;2023-02-12T09:08:07;101586.53;;;8.06;92.16
39267;BME280;24967;51.154;13.812;2023-02-12T09:10:37;101590.91;;;8.23;91.87
39267;BME280;24967;51.154;13.812;2023-02-12T09:13:05;101593.72;;;8.04;92.73
39267;BME280;24967;51.154;13.812;2023-02-12T09:15:34;101590.38;;;8.00;93.38
39267;BME280;24967;51.154;13.812;2023-02-12T09:18:01;101590.03;;;8.07;92.51
39267;BME280;24967;51.154;13.812;2023-02-12T09:20:28;101592.97;;;8.18;92.32
39267;BME280;24967;51.154;13.812;2023-02-12T09:22:54;101597.66;;;8.13;92.55
39267;BME280;24967;51.154;13.812;2023-02-12T09:25:21;101593.38;;;8.10;93.61
39267;BME280;24967;51.154;13.812;2023-02-12T09:27:47;101606.63;;;8.10;93.37
39267;BME280;24967;51.154;13.812;2023-02-12T09:30:15;101603.09;;;7.78;94.89
39267;BME280;24967;51.154;13.812;2023-02-12T09:32:41;101606.19;;;8.18;93.57
39267;BME280;24967;51.154;13.812;2023-02-12T09:35:08;101603.97;;;8.10;93.33
39267;BME280;24967;51.154;13.812;2023-02-12T09:37:36;101606.53;;;8.27;92.98
39267;BME280;24967;51.154;13.812;2023-02-12T09:40:02;101612.66;;;8.45;91.46
39267;BME280;24967;51.154;13.812;2023-02-12T09:42:31;101613.94;;;8.38;91.96
39267;BME280;24967;51.154;13.812;2023-02-12T09:45:04;101621.25;;;8.33;92.18
39267;BME280;24967;51.154;13.812;2023-02-12T09:47:34;101604.88;;;8.42;91.92
39267;BME280;24967;51.154;13.812;2023-02-12T09:50:09;101609.88;;;8.31;92.91
39267;BME280;24967;51.154;13.812;2023-02-12T09:52:38;101614.28;;;8.48;92.00
39267;BME280;24967;51.154;13.812;2023-02-12T09:55:04;101619.41;;;8.51;91.93
39267;BME280;24967;51.154;13.812;2023-02-12T09:57:31;101615.69;;;8.38;91.98
39267;BME280;24967;51.154;13.812;2023-02-12T10:00:01;101617.75;;;8.33;92.65
39267;BME280;24967;51.154;13.812;2023-02-12T10:02:28;101613.75;;;8.57;91.29
39267;BME280;24967;51.154;13.812;2023-02-12T10:04:56;101619.47;;;8.65;90.81
39267;BME280;24967;51.154;13.812;2023-02-12T10:07:28;101614.03;;;8.83;89.90
39267;BME280;24967;51.154;13.812;2023-02-12T10:10:02;101620.91;;;8.71;91.08
39267;BME280;24967;51.154;13.812;2023-02-12T10:12:37;101618.84;;;8.76;89.70
39267;BME280;24967;51.154;13.812;2023-02-12T10:15:08;101608.59;;;8.70;90.51
39267;BME280;24967;51.154;13.812;2023-02-12T10:17:39;101612.19;;;8.69;90.47
39267;BME280;24967;51.154;13.812;2023-02-12T10:20:25;101621.25;;;8.65;90.16
39267;BME280;24967;51.154;13.812;2023-02-12T10:22:56;101618.13;;;8.88;89.36
39267;BME280;24967;51.154;13.812;2023-02-12T10:25:26;101626.50;;;8.51;90.17
39267;BME280;24967;51.154;13.812;2023-02-12T10:27:54;101623.50;;;8.57;90.33
39267;BME280;24967;51.154;13.812;2023-02-12T10:30:21;101625.03;;;8.45;89.58
39267;BME280;24967;51.154;13.812;2023-02-12T10:32:49;101610.28;;;8.87;88.87
39267;BME280;24967;51.154;13.812;2023-02-12T10:35:17;101613.06;;;9.00;88.24
39267;BME280;24967;51.154;13.812;2023-02-12T10:37:49;101617.91;;;9.07;88.63
39267;BME280;24967;51.154;13.812;2023-02-12T10:40:19;101614.28;;;9.24;87.03
39267;BME280;24967;51.154;13.812;2023-02-12T10:42:48;101611.06;;;9.33;86.46
39267;BME280;24967;51.154;13.812;2023-02-12T10:45:16;101614.19;;;9.40;86.17
39267;BME280;24967;51.154;13.812;2023-02-12T10:47:43;101602.75;;;9.54;85.88
39267;BME280;24967;51.154;13.812;2023-02-12T10:50:14;101610.81;;;9.52;85.53
39267;BME280;24967;51.154;13.812;2023-02-12T10:52:43;101612.09;;;9.31;85.81
39267;BME280;24967;51.154;13.812;2023-02-12T10:55:23;101616.84;;;9.40;85.40
39267;BME280;24967;51.154;13.812;2023-02-12T10:57:49;101614.50;;;9.35;84.63
39267;BME280;24967;51.154;13.812;2023-02-12T11:00:21;101618.38;;;9.30;85.21
39267;BME280;24967;51.154;13.812;2023-02-12T11:02:58;101618.06;;;9.34;85.25
39267;BME280;24967;51.154;13.812;2023-02-12T11:05:27;101614.13;;;9.56;84.80
39267;BME280;24967;51.154;13.812;2023-02-12T11:07:54;101612.03;;;9.47;83.69
39267;BME280;24967;51.154;13.812;2023-02-12T11:10:26;101618.38;;;9.58;82.61
39267;BME280;24967;51.154;13.812;2023-02-12T11:12:53;101606.63;;;9.48;83.02
39267;BME280;24967;51.154;13.812;2023-02-12T11:15:21;101606.91;;;9.44;83.41
39267;BME280;24967;51.154;13.812;2023-02-12T11:17:54;101604.34;;;9.42;83.87
39267;BME280;24967;51.154;13.812;2023-02-12T11:20:24;101602.75;;;9.54;83.45
39267;BME280;24967;51.154;13.812;2023-02-12T11:22:52;101606.19;;;9.26;82.91
39267;BME280;24967;51.154;13.812;2023-02-12T11:25:20;101597.06;;;9.46;82.57
39267;BME280;24967;51.154;13.812;2023-02-12T11:27:56;101599.63;;;9.47;82.03
39267;BME280;24967;51.154;13.812;2023-02-12T11:30:23;101604.06;;;9.47;82.26
39267;BME280;24967;51.154;13.812;2023-02-12T11:32:50;101600.59;;;9.16;82.87
39267;BME280;24967;51.154;13.812;2023-02-12T11:35:17;101606.91;;;9.29;82.25
39267;BME280;24967;51.154;13.812;2023-02-12T11:37:49;101605.66;;;9.21;82.47
39267;BME280;24967;51.154;13.812;2023-02-12T11:40:18;101603.66;;;9.24;81.96
39267;BME280;24967;51.154;13.812;2023-02-12T11:42:46;101604.88;;;9.18;82.35
39267;BME280;24967;51.154;13.812;2023-02-12T11:45:16;101606.03;;;9.29;82.10
39267;BME280;24967;51.154;13.812;2023-02-12T11:47:43;101598.28;;;9.40;81.36
39267;BME280;24967;51.154;13.812;2023-02-12T11:50:14;101601.13;;;9.51;81.04
39267;BME280;24967;51.154;13.812;2023-02-12T11:52:46;101599.72;;;9.60;79.47
39267;BME280;24967;51.154;13.812;2023-02-12T11:55:17;101591.47;;;9.79;78.53
39267;BME280;24967;51.154;13.812;2023-02-12T11:57:46;101599.25;;;9.68;78.59
39267;BME280;24967;51.154;13.812;2023-02-12T12:00:14;101602.38;;;9.89;78.11
39267;BME280;24967;51.154;13.812;2023-02-12T12:02:44;101595.06;;;9.92;78.08
39267;BME280;24967;51.154;13.812;2023-02-12T12:05:14;101594.13;;;9.50;77.76
39267;BME280;24967;51.154;13.812;2023-02-12T12:07:42;101588.81;;;9.64;78.44
39267;BME280;24967;51.154;13.812;2023-02-12T12:10:11;101588.16;;;9.61;77.96
39267;BME280;24967;51.154;13.812;2023-02-12T12:12:40;101589.84;;;9.76;78.02
39267;BME280;24967;51.154;13.812;2023-02-12T12:15:09;101588.88;;;9.92;77.15
39267;BME280;24967;51.154;13.812;2023-02-12T12:20:28;101584.34;;;9.94;76.06
39267;BME280;24967;51.154;13.812;2023-02-12T12:22:58;101579.22;;;10.05;75.73
39267;BME280;24967;51.154;13.812;2023-02-12T12:25:26;101586.53;;;9.73;76.19
39267;BME280;24967;51.154;13.812;2023-02-12T12:27:59;101581.31;;;9.57;76.43
39267;BME280;24967;51.154;13.812;2023-02-12T12:30:40;101581.31;;;9.71;76.05
39267;BME280;24967;51.154;13.812;2023-02-12T12:33:13;101579.59;;;9.70;75.46
39267;BME280;24967;51.154;13.812;2023-02-12T12:35:43;101581.50;;;9.54;75.05
39267;BME280;24967;51.154;13.812;2023-02-12T12:38:16;101577.91;;;9.55;75.26
39267;BME280;24967;51.154;13.812;2023-02-12T12:40:48;101574.28;;;9.27;75.67
39267;BME280;24967;51.154;13.812;2023-02-12T12:43:20;101573.16;;;9.46;76.02
39267;BME280;24967;51.154;13.812;2023-02-12T12:45:59;101571.16;;;9.49;75.85
39267;BME280;24967;51.154;13.812;2023-02-12T12:51:21;101570.13;;;9.80;76.13
39267;BME280;24967;51.154;13.812;2023-02-12T12:53:53;101573.72;;;9.79;76.60
39267;BME280;24967;51.154;13.812;2023-02-12T12:56:23;101576.66;;;9.89;76.33
39267;BME280;24967;51.154;13.812;2023-02-12T12:58:54;101566.78;;;9.91;76.44
39267;BME280;24967;51.154;13.812;2023-02-12T13:07:01;101567.25;;;9.40;77.33
39267;BME280;24967;51.154;13.812;2023-02-12T13:09:40;101572.78;;;9.52;77.37
39267;BME280;24967;51.154;13.812;2023-02-12T13:12:19;101561.59;;;9.61;77.47
39267;BME280;24967;51.154;13.812;2023-02-12T13:14:49;101567.88;;;9.74;77.06
39267;BME280;24967;51.154;13.812;2023-02-12T13:17:18;101568.59;;;9.62;77.13